»·PEaware :: SWA819 KLAS-KLAX

SWA819 :: KLAS-KLAX

FLIGHT INFORMATION

Flight Status: Arrived
Operator:
Southwest Airlines
More flights by this operator :: More flights under this callsign
Pilot: Keenan Y. (13533)
Aircraft: BOEING 737-800
(B738)
More flights by this aircraft type
Origin: KLAS McCarran Intl
United States
Destination: KLAX Los Angeles Intl
United States
More flights between these airports :: More routes between these airports
Route: +BOACH8 TNP SEAVU2
File this flight plan on PilotEdge
Remarks:
Altitude:
(Current/Filed)
32,000ft
Speed:
(Current/Filed)
440kts
Departed: 13-Mar-18 10:55 AM
Arrived: 13-Mar-18 11:45 AM
Distance/Time
Traveled:
205nm/0:50
Distance/Time
To Go:
Arrived

Flight Plot

Page will automatically refresh every two minutes.

Flight plan parsing failed; only flown route is shown


Map Options




Map Legend


Flown Route
Filed Route
Departure Airport
Arrival Airport
Navaid (VOR, NDB)
Fix

Horizontal Profiles

Position Reports

Time Latitude Longitude Heading Altitude Ground
Speed
13-Mar-18 10:25 36.079655 -115.146185 335 2094ft 0kts
13-Mar-18 10:26 36.079655 -115.146185 335 2094ft 0kts
13-Mar-18 10:27 36.079655 -115.146185 335 2094ft 0kts
13-Mar-18 10:28 36.079655 -115.146185 335 2094ft 0kts
13-Mar-18 10:29 36.079655 -115.146185 335 2094ft 0kts
13-Mar-18 10:30 36.079655 -115.146185 335 2094ft 0kts
13-Mar-18 10:31 36.079655 -115.146185 335 2094ft 0kts
13-Mar-18 10:32 36.079655 -115.146185 335 2094ft 0kts
13-Mar-18 10:33 36.079655 -115.146185 335 2094ft 0kts
13-Mar-18 10:34 36.079655 -115.146185 335 2094ft 0kts
13-Mar-18 10:35 36.079655 -115.146185 335 2094ft 0kts
13-Mar-18 10:36 36.079655 -115.146185 335 2094ft 0kts
13-Mar-18 10:37 36.079655 -115.146185 335 2094ft 0kts
13-Mar-18 10:38 36.079655 -115.146185 335 2094ft 0kts
13-Mar-18 10:39 36.079655 -115.146185 335 2094ft 0kts
13-Mar-18 10:40 36.079655 -115.146185 335 2094ft 0kts
13-Mar-18 10:41 36.079655 -115.146185 335 2094ft 0kts
13-Mar-18 10:42 36.079655 -115.146185 335 2094ft 0kts
13-Mar-18 10:43 36.079655 -115.146185 335 2094ft 0kts
13-Mar-18 10:44 36.079324 -115.145967 312 2094ft 2kts
13-Mar-18 10:45 36.079280 -115.145290 234 2093ft 1kts
13-Mar-18 10:46 36.078931 -115.145726 215 2095ft 0kts
13-Mar-18 10:47 36.078931 -115.145727 215 2095ft 0kts
13-Mar-18 10:48 36.078921 -115.145735 215 2095ft 0kts
13-Mar-18 10:49 36.078273 -115.143429 91 2088ft 26kts
13-Mar-18 10:50 36.078256 -115.133648 89 2059ft 26kts
13-Mar-18 10:51 36.078299 -115.124208 91 2037ft 20kts
13-Mar-18 10:52 36.077420 -115.121438 139 2036ft 0kts
13-Mar-18 10:53 36.076454 -115.122000 270 2038ft 13kts
13-Mar-18 10:54 36.076283 -115.166461 269 2708ft 226kts
13-Mar-18 10:55 36.068713 -115.246142 237 5908ft 263kts
13-Mar-18 10:56 36.021726 -115.283561 197 7007ft 291kts
13-Mar-18 10:57 35.947693 -115.308310 184 7018ft 286kts
13-Mar-18 10:58 35.870836 -115.314052 187 10636ft 293kts
13-Mar-18 10:59 35.784749 -115.307841 177 13819ft 321kts
13-Mar-18 11:00 35.696291 -115.296835 179 16963ft 334kts
13-Mar-18 11:01 35.602829 -115.297227 187 19903ft 344kts
13-Mar-18 11:02 35.506037 -115.301497 187 22587ft 357kts
13-Mar-18 11:03 35.413732 -115.305185 187 24833ft 369kts
13-Mar-18 11:04 35.312187 -115.309200 188 27028ft 381kts
13-Mar-18 11:05 35.205249 -115.313405 188 29068ft 392kts
13-Mar-18 11:06 35.096898 -115.317599 189 31429ft 388kts
13-Mar-18 11:07 35.000148 -115.321509 189 32084ft 412kts
13-Mar-18 11:08 34.882789 -115.326022 190 32077ft 428kts
13-Mar-18 11:09 34.766004 -115.335674 205 32082ft 410kts
13-Mar-18 11:10 34.660021 -115.383575 207 32097ft 406kts
13-Mar-18 11:11 34.554534 -115.430015 207 32164ft 406kts
13-Mar-18 11:12 34.450251 -115.475511 207 32174ft 406kts
13-Mar-18 11:13 34.344101 -115.521686 208 32174ft 406kts
13-Mar-18 11:14 34.260693 -115.601871 228 32175ft 388kts
13-Mar-18 11:15 34.182685 -115.690750 227 32188ft 389kts
13-Mar-18 11:16 34.111915 -115.784826 248 32191ft 380kts
13-Mar-18 11:17 34.091433 -115.908865 259 32181ft 380kts
13-Mar-18 11:18 34.073120 -116.034303 258 32175ft 378kts
13-Mar-18 11:19 34.056240 -116.147530 258 31596ft 333kts
13-Mar-18 11:20 34.039333 -116.259911 258 29868ft 347kts
13-Mar-18 11:21 34.022089 -116.374026 259 28109ft 351kts
13-Mar-18 11:22 34.004997 -116.486413 259 26405ft 345kts
13-Mar-18 11:23 33.996069 -116.600483 263 24689ft 341kts
13-Mar-18 11:24 33.987447 -116.709312 263 23087ft 337kts
13-Mar-18 11:25 33.978788 -116.815751 263 21525ft 331kts
13-Mar-18 11:26 33.969940 -116.923566 263 19935ft 325kts
13-Mar-18 11:27 33.961071 -117.030479 263 18335ft 317kts
13-Mar-18 11:28 33.952391 -117.134028 263 16737ft 312kts
13-Mar-18 11:29 33.943764 -117.235843 263 15422ft 305kts
13-Mar-18 11:30 33.935214 -117.335763 263 14153ft 302kts
13-Mar-18 11:31 33.950222 -117.430831 291 12916ft 305kts
13-Mar-18 11:32 33.984033 -117.521629 288 12438ft 302kts
13-Mar-18 11:33 34.013837 -117.613682 288 12432ft 303kts
13-Mar-18 11:34 34.016631 -117.709424 263 10688ft 298kts
13-Mar-18 11:35 34.008933 -117.798061 265 9360ft 283kts
13-Mar-18 11:36 34.001199 -117.886261 266 8043ft 261kts
13-Mar-18 11:37 33.993590 -117.973308 266 6736ft 263kts
13-Mar-18 11:38 33.986199 -118.057381 266 5475ft 265kts
13-Mar-18 11:39 33.978759 -118.139542 262 4248ft 269kts
13-Mar-18 11:40 33.970537 -118.222848 262 3008ft 244kts
13-Mar-18 11:41 33.963339 -118.293879 262 1942ft 179kts
13-Mar-18 11:42 33.958297 -118.342724 262 1118ft 150kts
13-Mar-18 11:43 33.953103 -118.392082 263 283ft 148kts
13-Mar-18 11:44 33.949574 -118.418956 232 110ft 15kts
13-Mar-18 11:45 33.947761 -118.421796 232 110ft 17kts
13-Mar-18 11:46 33.947256 -118.418284 82 110ft 22kts
13-Mar-18 11:47 33.948141 -118.410830 83 110ft 22kts
13-Mar-18 11:48 33.948845 -118.403245 110 110ft 21kts
13-Mar-18 11:49 33.947890 -118.401108 183 110ft 0kts
13-Mar-18 11:50 33.947890 -118.401108 183 110ft 0kts
13-Mar-18 11:51 33.947890 -118.401108 183 110ft 0kts

Navigation Log

Ident Type
Flight plan parsing failed, navigation log unavailable